Time;durP1;ratioP1;P1;durP2;ratioP2;P2;SDS_P1;SDS_P2;PMS_P1;PMS_P2;Temp;Humidity;BMP_temperature;BMP_pressure;BME280_temperature;BME280_humidity;BME280_pressure;Samples;Min_cycle;Max_cycle;Signal;HPM_P1;HPM_P2
2022/11/27 00:01:10;;;;;;;41.70;18.67;;;10.70;90.40;;;;;;6215416;23;20175;-79
2022/11/27 00:03:38;;;;;;;36.27;18.17;;;10.70;90.40;;;;;;6214665;23;20175;-78
2022/11/27 00:06:08;;;;;;;36.87;18.03;;;10.70;90.40;;;;;;6214106;23;20163;-80
2022/11/27 00:08:36;;;;;;;30.37;16.93;;;10.70;90.40;;;;;;6213950;23;20237;-79
2022/11/27 00:11:09;;;;;;;34.23;15.90;;;10.70;90.40;;;;;;6215450;23;20503;-80
2022/11/27 00:13:37;;;;;;;34.20;16.47;;;10.70;90.40;;;;;;6214876;23;20160;-80
2022/11/27 00:16:06;;;;;;;31.23;16.47;;;10.70;90.40;;;;;;6213509;23;20609;-79
2022/11/27 00:18:36;;;;;;;36.47;18.73;;;10.70;90.30;;;;;;6214069;23;20175;-79
2022/11/27 00:21:05;;;;;;;33.43;16.63;;;10.70;90.30;;;;;;6214871;23;20175;-79
2022/11/27 00:23:34;;;;;;;34.47;17.00;;;10.70;90.30;;;;;;6214541;23;20222;-80
2022/11/27 00:26:04;;;;;;;30.90;16.90;;;10.60;90.30;;;;;;6213070;23;20623;-79
2022/11/27 00:28:34;;;;;;;29.93;15.57;;;10.70;90.40;;;;;;6213576;23;20519;-80
2022/11/27 00:31:06;;;;;;;29.00;15.93;;;10.60;90.40;;;;;;6215324;23;20159;-79
2022/11/27 00:33:36;;;;;;;31.70;16.60;;;10.60;90.40;;;;;;6213904;23;20158;-79
2022/11/27 00:36:05;;;;;;;32.60;16.03;;;10.70;90.40;;;;;;6212540;23;20170;-78
2022/11/27 00:38:34;;;;;;;34.87;16.67;;;10.70;90.40;;;;;;6214471;23;20174;-79
2022/11/27 00:41:07;;;;;;;33.80;15.93;;;10.60;90.40;;;;;;6214492;23;20619;-78
2022/11/27 00:43:37;;;;;;;29.60;15.87;;;10.60;90.80;;;;;;6214016;23;20237;-78
2022/11/27 00:46:12;;;;;;;32.60;17.10;;;10.60;90.40;;;;;;6215004;23;20155;-78
2022/11/27 00:48:41;;;;;;;28.03;15.57;;;10.60;90.50;;;;;;6214176;23;20227;-78
2022/11/27 00:51:13;;;;;;;27.23;14.67;;;10.60;90.30;;;;;;6214139;23;20226;-79
2022/11/27 00:53:42;;;;;;;32.80;15.23;;;10.60;90.10;;;;;;6214000;23;20213;-78
2022/11/27 00:56:14;;;;;;;25.63;13.53;;;10.60;90.10;;;;;;6214018;23;20190;-79
2022/11/27 00:58:44;;;;;;;28.70;16.33;;;10.60;89.90;;;;;;6213209;23;20430;-79
2022/11/27 01:01:18;;;;;;;25.57;13.33;;;10.60;89.80;;;;;;6215136;23;20225;-79
2022/11/27 01:03:47;;;;;;;21.83;12.63;;;10.60;90.00;;;;;;6213432;23;20869;-78
2022/11/27 01:06:16;;;;;;;23.87;12.80;;;10.60;89.30;;;;;;6213447;23;20632;-78
2022/11/27 01:08:45;;;;;;;25.97;13.30;;;10.60;89.00;;;;;;6214291;23;20175;-78
2022/11/27 01:11:15;;;;;;;26.70;13.43;;;10.60;88.90;;;;;;6214027;23;20182;-79
2022/11/27 01:13:45;;;;;;;24.20;12.67;;;10.60;89.20;;;;;;6215276;23;20202;-80
2022/11/27 01:16:19;;;;;;;24.00;12.43;;;10.60;88.70;;;;;;6216599;23;20158;-77
2022/11/27 01:18:48;;;;;;;20.53;12.40;;;10.50;88.60;;;;;;6215490;23;20182;-80
2022/11/27 01:21:19;;;;;;;23.30;12.63;;;10.50;88.30;;;;;;6217360;23;20360;-79
2022/11/27 01:23:49;;;;;;;20.77;11.67;;;10.50;88.20;;;;;;6215549;23;20512;-79
2022/11/27 01:26:18;;;;;;;20.57;12.53;;;10.50;87.50;;;;;;6213462;23;20175;-79
2022/11/27 01:28:51;;;;;;;20.63;11.53;;;10.40;87.50;;;;;;6214824;23;20210;-80
2022/11/27 01:31:21;;;;;;;20.10;11.60;;;10.40;87.70;;;;;;6216338;23;20599;-80
2022/11/27 01:33:53;;;;;;;23.90;11.40;;;10.40;87.60;;;;;;6217059;23;20690;-79
2022/11/27 01:36:24;;;;;;;19.70;11.03;;;10.40;87.90;;;;;;6214321;23;20388;-80
2022/11/27 01:38:52;;;;;;;19.77;11.43;;;10.40;87.60;;;;;;6215630;23;20163;-80
2022/11/27 01:41:24;;;;;;;22.87;11.67;;;10.40;88.70;;;;;;6216940;23;20175;-80
2022/11/27 01:43:57;;;;;;;20.70;10.63;;;10.40;87.40;;;;;;6216666;23;20202;-79
2022/11/27 01:46:31;;;;;;;21.17;11.50;;;10.40;87.50;;;;;;6214154;23;20601;-80
2022/11/27 01:49:22;;;;;;;21.30;11.47;;;10.40;87.60;;;;;;6216204;23;20158;-80
2022/11/27 01:51:53;;;;;;;22.83;11.70;;;10.40;87.20;;;;;;6216532;23;20242;-79
2022/11/27 01:54:26;;;;;;;24.07;12.40;;;10.40;87.10;;;;;;6216201;23;20155;-80
2022/11/27 01:56:58;;;;;;;21.13;11.43;;;10.40;87.00;;;;;;6213030;23;20160;-79
2022/11/27 01:59:28;;;;;;;25.77;12.48;;;10.40;87.10;;;;;;6214873;23;20387;-79
2022/11/27 02:01:56;;;;;;;16.37;9.73;;;10.40;87.30;;;;;;6217345;23;20205;-80
2022/11/27 02:04:25;;;;;;;16.80;10.40;;;10.40;87.60;;;;;;6216882;23;20191;-80
2022/11/27 02:06:56;;;;;;;16.80;9.97;;;10.40;87.60;;;;;;6215285;23;20253;-80
2022/11/27 02:09:24;;;;;;;18.50;9.53;;;10.40;87.50;;;;;;6214599;23;20159;-79
2022/11/27 02:11:58;;;;;;;19.73;11.15;;;10.40;87.40;;;;;;6215711;23;20749;-79
2022/11/27 02:14:35;;;;;;;18.60;10.20;;;10.50;87.40;;;;;;6216066;23;20187;-79
2022/11/27 02:17:11;;;;;;;15.80;9.57;;;10.50;87.30;;;;;;6215656;23;20156;-79
2022/11/27 02:19:54;;;;;;;16.50;9.37;;;10.50;86.80;;;;;;6215834;23;20675;-79
2022/11/27 02:22:39;;;;;;;18.37;10.30;;;10.60;86.10;;;;;;6217051;23;20163;-78
2022/11/27 02:25:18;;;;;;;19.15;11.00;;;10.60;85.50;;;;;;6213570;23;20386;-78
2022/11/27 02:28:10;;;;;;;19.77;10.73;;;10.60;85.20;;;;;;6215855;23;20230;-79
2022/11/27 02:30:46;;;;;;;22.03;11.07;;;10.60;84.90;;;;;;6216315;23;20195;-79
2022/11/27 02:33:19;;;;;;;19.10;10.43;;;10.60;85.10;;;;;;6216785;23;20238;-79
2022/11/27 02:35:50;;;;;;;19.17;10.83;;;10.60;85.20;;;;;;6215724;23;20465;-79
2022/11/27 02:38:25;;;;;;;19.35;11.80;;;10.60;84.80;;;;;;6213861;23;20379;-79
2022/11/27 02:40:58;;;;;;;20.60;10.97;;;10.60;85.30;;;;;;6215106;23;20596;-79
2022/11/27 02:43:31;;;;;;;20.17;11.00;;;10.60;85.40;;;;;;6216718;23;20234;-79
2022/11/27 02:46:02;;;;;;;23.83;11.33;;;10.70;85.40;;;;;;6214686;23;20684;-78
2022/11/27 02:48:35;;;;;;;19.17;10.93;;;10.60;85.40;;;;;;6214564;23;20167;-78
2022/11/27 02:51:07;;;;;;;23.65;12.02;;;10.70;85.30;;;;;;6214747;23;20387;-78
2022/11/27 02:53:39;;;;;;;21.73;11.33;;;10.70;85.10;;;;;;6212102;23;21012;-78
2022/11/27 02:56:12;;;;;;;20.40;10.73;;;10.70;84.90;;;;;;6214051;23;20166;-78
2022/11/27 02:58:42;;;;;;;21.60;11.37;;;10.70;84.80;;;;;;6215303;23;20210;-78
2022/11/27 03:01:13;;;;;;;20.33;11.40;;;10.70;84.70;;;;;;6213642;23;20702;-78
2022/11/27 03:03:47;;;;;;;21.00;11.70;;;10.70;84.60;;;;;;6214674;23;20206;-78
2022/11/27 03:06:20;;;;;;;21.80;11.80;;;10.70;84.20;;;;;;6214931;23;20198;-77
2022/11/27 03:08:53;;;;;;;25.57;11.87;;;10.60;84.00;;;;;;6216167;23;20160;-78
2022/11/27 03:11:22;;;;;;;21.60;12.63;;;10.60;84.20;;;;;;6216228;23;20156;-79
2022/11/27 03:13:53;;;;;;;21.77;12.00;;;10.60;84.40;;;;;;6215060;23;20171;-79
2022/11/27 03:16:30;;;;;;;21.45;13.48;;;10.60;84.20;;;;;;6213669;23;20761;-78
2022/11/27 03:19:08;;;;;;;23.97;12.47;;;10.60;84.70;;;;;;6216096;23;20159;-78
2022/11/27 03:21:39;;;;;;;20.93;11.50;;;10.50;85.60;;;;;;6216216;23;20255;-78
2022/11/27 03:24:09;;;;;;;21.30;12.07;;;10.50;84.50;;;;;;6215426;23;20175;-78
2022/11/27 03:26:39;;;;;;;20.93;11.57;;;10.50;84.50;;;;;;6215398;23;20175;-78
2022/11/27 03:29:10;;;;;;;21.07;12.00;;;10.60;84.80;;;;;;6215434;23;20694;-78
2022/11/27 03:31:41;;;;;;;21.33;11.60;;;10.60;84.90;;;;;;6215655;23;20597;-78
2022/11/27 03:34:09;;;;;;;25.03;10.50;;;10.60;84.90;;;;;;6216027;23;20175;-79
2022/11/27 03:36:37;;;;;;;20.47;12.00;;;10.60;85.00;;;;;;6214476;23;20171;-78
2022/11/27 03:39:06;;;;;;;24.77;12.17;;;10.60;85.10;;;;;;6214690;23;20194;-79
2022/11/27 03:41:42;;;;;;;19.23;10.87;;;10.60;85.10;;;;;;6214629;23;20179;-78
2022/11/27 03:44:23;;;;;;;19.17;10.93;;;10.60;85.00;;;;;;6214639;23;20551;-79
2022/11/27 03:47:05;;;;;;;18.13;11.00;;;10.60;84.60;;;;;;6214197;23;20214;-78
2022/11/27 03:49:47;;;;;;;22.13;12.03;;;10.60;84.50;;;;;;6215080;23;20161;-78
2022/11/27 03:52:22;;;;;;;19.70;11.83;;;10.60;84.50;;;;;;6214273;23;20199;-78
2022/11/27 03:55:00;;;;;;;22.97;11.83;;;10.60;84.50;;;;;;6214482;23;20422;-79
2022/11/27 03:57:34;;;;;;;19.67;11.50;;;10.60;84.60;;;;;;6211536;23;20225;-79
2022/11/27 04:00:05;;;;;;;22.20;12.02;;;10.60;84.60;;;;;;6212038;23;20877;-79
2022/11/27 04:02:42;;;;;;;22.80;11.83;;;10.60;84.70;;;;;;6213353;23;20213;-79
2022/11/27 04:05:11;;;;;;;22.30;12.00;;;10.60;84.80;;;;;;6215326;23;20178;-79
2022/11/27 04:07:40;;;;;;;24.13;11.80;;;10.60;84.80;;;;;;6214623;23;20489;-79
2022/11/27 04:10:10;;;;;;;22.23;11.80;;;10.60;85.00;;;;;;6215206;23;20178;-79
2022/11/27 04:12:38;;;;;;;26.77;14.10;;;10.60;84.90;;;;;;6212506;23;20438;-78
2022/11/27 04:15:07;;;;;;;19.63;11.70;;;10.60;85.00;;;;;;6214944;23;20246;-78
2022/11/27 04:17:36;;;;;;;25.83;13.13;;;10.60;85.10;;;;;;6214663;23;20175;-78
2022/11/27 04:20:07;;;;;;;21.93;11.80;;;10.60;85.20;;;;;;6214304;23;20229;-78
2022/11/27 04:22:36;;;;;;;28.53;13.53;;;10.60;85.40;;;;;;6213016;23;20155;-78
2022/11/27 04:25:05;;;;;;;25.83;14.30;;;10.60;85.40;;;;;;6211517;23;20407;-79
2022/11/27 04:27:33;;;;;;;25.97;14.10;;;10.60;85.60;;;;;;6212484;23;20220;-79
2022/11/27 04:30:02;;;;;;;23.23;12.37;;;10.60;85.60;;;;;;6211494;23;20221;-79
2022/11/27 04:32:30;;;;;;;23.43;12.63;;;10.50;85.50;;;;;;6212406;23;20694;-79
2022/11/27 04:34:58;;;;;;;24.73;12.53;;;10.50;85.70;;;;;;6212266;23;20175;-79
2022/11/27 04:37:28;;;;;;;26.33;14.27;;;10.60;85.80;;;;;;6212216;23;20390;-79
2022/11/27 04:39:56;;;;;;;25.20;12.63;;;10.60;86.40;;;;;;6213828;23;20620;-78
2022/11/27 04:42:24;;;;;;;20.60;12.10;;;10.50;86.30;;;;;;6212620;23;20566;-79
2022/11/27 04:44:53;;;;;;;23.17;12.53;;;10.50;86.10;;;;;;6213089;23;20212;-79
2022/11/27 04:47:21;;;;;;;23.03;12.37;;;10.50;86.00;;;;;;6211800;23;20229;-79
2022/11/27 04:49:49;;;;;;;24.53;13.17;;;10.50;86.00;;;;;;6213614;23;20237;-79
2022/11/27 04:52:18;;;;;;;23.07;12.83;;;10.50;86.00;;;;;;6211815;23;20242;-79
2022/11/27 04:54:47;;;;;;;21.77;12.50;;;10.50;86.10;;;;;;6212987;23;20175;-79
2022/11/27 04:57:16;;;;;;;20.90;11.90;;;10.50;86.10;;;;;;6211952;23;20175;-78
2022/11/27 04:59:44;;;;;;;23.88;12.35;;;10.50;86.20;;;;;;6213279;23;20331;-78
2022/11/27 05:02:12;;;;;;;24.23;12.37;;;10.50;86.10;;;;;;6212986;23;20503;-80
2022/11/27 05:04:40;;;;;;;26.07;12.23;;;10.50;86.00;;;;;;6210000;23;20191;-79
2022/11/27 05:07:09;;;;;;;23.13;11.40;;;10.50;86.10;;;;;;6213680;23;20654;-79
2022/11/27 05:09:37;;;;;;;26.17;12.13;;;10.50;86.10;;;;;;6212874;23;20171;-77
2022/11/27 05:12:07;;;;;;;24.33;13.65;;;10.50;86.30;;;;;;6212998;23;20852;-77
2022/11/27 05:14:35;;;;;;;21.80;11.27;;;10.50;86.30;;;;;;6209585;23;20171;-78
2022/11/27 05:17:04;;;;;;;22.17;12.33;;;10.50;86.30;;;;;;6212040;23;20175;-78
2022/11/27 05:19:32;;;;;;;18.03;10.60;;;10.50;86.40;;;;;;6212705;23;20179;-78
2022/11/27 05:22:04;;;;;;;26.50;12.00;;;10.50;86.40;;;;;;6213804;23;20175;-78
2022/11/27 05:24:33;;;;;;;22.63;11.93;;;10.50;86.50;;;;;;6209852;23;20191;-78
2022/11/27 05:27:01;;;;;;;20.60;11.87;;;10.50;86.40;;;;;;6208827;23;20233;-79
2022/11/27 05:29:31;;;;;;;22.33;12.33;;;10.50;86.40;;;;;;6209672;23;20229;-80
2022/11/27 05:31:59;;;;;;;18.40;11.20;;;10.50;86.50;;;;;;6210416;23;20179;-79
2022/11/27 05:34:27;;;;;;;24.03;12.73;;;10.50;86.60;;;;;;6210584;23;20621;-79
2022/11/27 05:36:56;;;;;;;27.15;14.30;;;10.50;86.40;;;;;;6210591;23;20387;-78
2022/11/27 05:39:24;;;;;;;22.23;12.07;;;10.50;86.80;;;;;;6213470;23;20222;-79
2022/11/27 05:41:52;;;;;;;28.20;13.23;;;10.50;86.90;;;;;;6210743;23;20177;-79
2022/11/27 05:44:21;;;;;;;21.70;11.73;;;10.50;86.70;;;;;;6214139;23;20202;-79
2022/11/27 05:46:50;;;;;;;27.10;13.07;;;10.50;86.70;;;;;;6213747;23;20175;-79
2022/11/27 05:49:19;;;;;;;24.98;13.95;;;10.50;86.80;;;;;;6213318;23;20442;-80
2022/11/27 05:51:47;;;;;;;25.60;13.17;;;10.50;87.20;;;;;;6213112;23;20668;-79
2022/11/27 05:54:19;;;;;;;23.97;13.97;;;10.50;87.30;;;;;;6214488;23;20160;-79
2022/11/27 05:56:47;;;;;;;23.27;11.67;;;10.50;87.20;;;;;;6212616;23;20175;-79
2022/11/27 05:59:15;;;;;;;23.60;12.43;;;10.60;87.20;;;;;;6214317;23;20179;-79
2022/11/27 06:01:44;;;;;;;24.67;12.90;;;10.60;87.20;;;;;;6215872;23;20199;-80
2022/11/27 06:04:13;;;;;;;23.23;12.13;;;10.60;87.20;;;;;;6217033;23;20178;-79
2022/11/27 06:06:42;;;;;;;27.30;13.43;;;10.60;87.20;;;;;;6216060;23;20206;-79
2022/11/27 06:09:10;;;;;;;23.67;13.47;;;10.60;87.20;;;;;;6215331;23;20179;-79
2022/11/27 06:11:41;;;;;;;27.70;14.17;;;10.60;87.20;;;;;;6211756;23;20155;-80
2022/11/27 06:14:09;;;;;;;28.93;14.23;;;10.60;87.20;;;;;;6211065;23;20664;-80
2022/11/27 06:16:38;;;;;;;31.53;14.40;;;10.60;87.20;;;;;;6212696;23;20668;-79
2022/11/27 06:19:08;;;;;;;24.47;13.63;;;10.60;87.00;;;;;;6212364;23;20508;-79
2022/11/27 06:21:37;;;;;;;23.47;13.07;;;10.60;87.10;;;;;;6216906;23;20595;-79
2022/11/27 06:24:06;;;;;;;25.17;12.77;;;10.60;87.00;;;;;;6216889;23;20225;-79
2022/11/27 06:26:35;;;;;;;27.43;14.00;;;10.60;87.10;;;;;;6216334;23;20722;-78
2022/11/27 06:29:03;;;;;;;20.53;11.80;;;10.70;87.20;;;;;;6213955;23;20534;-78
2022/11/27 06:31:33;;;;;;;25.47;13.00;;;10.70;87.00;;;;;;6214308;23;20175;-79
2022/11/27 06:34:02;;;;;;;25.47;13.40;;;10.70;86.70;;;;;;6217155;23;20171;-79
2022/11/27 06:36:33;;;;;;;20.50;11.37;;;10.70;86.80;;;;;;6215422;23;20621;-79
2022/11/27 06:39:04;;;;;;;25.30;13.03;;;10.80;87.00;;;;;;6216011;23;20175;-79
2022/11/27 06:41:33;;;;;;;23.13;13.13;;;10.80;86.90;;;;;;6212624;23;20543;-79
2022/11/27 06:44:02;;;;;;;22.80;12.87;;;10.80;86.90;;;;;;6213706;23;20695;-80
2022/11/27 06:46:30;;;;;;;24.30;12.53;;;10.90;86.80;;;;;;6214057;23;20270;-80
2022/11/27 06:48:59;;;;;;;28.87;13.43;;;10.90;86.70;;;;;;6215727;23;20178;-79
2022/11/27 06:51:29;;;;;;;30.10;16.23;;;10.90;86.50;;;;;;6215030;23;20199;-80
2022/11/27 06:53:59;;;;;;;28.03;15.67;;;11.00;86.10;;;;;;6216022;23;20159;-78
2022/11/27 06:56:30;;;;;;;26.60;14.13;;;10.90;85.90;;;;;;6213285;23;20494;-79
2022/11/27 06:59:00;;;;;;;26.47;14.00;;;11.00;86.00;;;;;;6215131;23;20600;-78
2022/11/27 07:01:31;;;;;;;23.40;13.00;;;11.00;85.60;;;;;;6213381;23;20633;-78
2022/11/27 07:04:00;;;;;;;24.33;12.67;;;11.00;85.70;;;;;;6214246;23;20601;-79
2022/11/27 07:06:28;;;;;;;27.73;14.67;;;11.00;85.40;;;;;;6215026;23;20194;-78
2022/11/27 07:08:57;;;;;;;24.77;13.80;;;11.00;85.30;;;;;;6215162;23;20307;-79
2022/11/27 07:11:28;;;;;;;27.93;14.83;;;11.00;85.20;;;;;;6213729;23;20202;-79
2022/11/27 07:13:58;;;;;;;25.67;13.30;;;11.10;85.30;;;;;;6216148;23;20443;-79
2022/11/27 07:16:28;;;;;;;26.37;13.83;;;11.10;85.60;;;;;;6216462;23;20155;-79
2022/11/27 07:19:00;;;;;;;26.23;14.47;;;11.10;85.60;;;;;;6216466;23;20271;-79
2022/11/27 07:21:29;;;;;;;26.50;12.43;;;11.10;85.50;;;;;;6215602;23;20205;-78
2022/11/27 07:23:57;;;;;;;25.13;12.93;;;11.10;85.20;;;;;;6215386;23;20651;-77
2022/11/27 07:26:29;;;;;;;27.40;13.40;;;11.10;84.70;;;;;;6215316;23;20656;-80
2022/11/27 07:28:57;;;;;;;22.60;13.00;;;11.10;84.60;;;;;;6215725;23;20164;-81
2022/11/27 07:31:28;;;;;;;27.67;13.35;;;11.10;84.60;;;;;;6215017;23;20773;-78
2022/11/27 07:33:57;;;;;;;31.30;13.17;;;11.20;84.70;;;;;;6214242;23;20549;-77
2022/11/27 07:36:28;;;;;;;22.07;12.60;;;11.10;84.60;;;;;;6215948;23;20217;-78
2022/11/27 07:38:56;;;;;;;24.50;15.13;;;11.20;84.90;;;;;;6214962;23;20166;-80
2022/11/27 07:41:25;;;;;;;23.97;14.63;;;11.20;84.90;;;;;;6215089;23;20226;-79
2022/11/27 07:44:03;;;;;;;28.00;13.80;;;11.30;85.10;;;;;;6215412;23;20155;-80
2022/11/27 07:46:31;;;;;;;24.57;15.03;;;11.30;84.90;;;;;;6214109;23;20449;-78
2022/11/27 07:49:00;;;;;;;21.20;12.53;;;11.40;85.20;;;;;;6213965;23;20182;-80
2022/11/27 07:51:28;;;;;;;21.20;11.87;;;11.40;85.00;;;;;;6213824;23;20676;-78
2022/11/27 07:53:57;;;;;;;19.37;11.33;;;11.40;84.90;;;;;;6215452;23;20174;-78
2022/11/27 07:56:26;;;;;;;24.73;12.67;;;11.50;84.70;;;;;;6214956;23;20171;-79
2022/11/27 07:58:54;;;;;;;23.88;13.00;;;11.50;84.90;;;;;;6214069;23;20387;-78
2022/11/27 08:01:24;;;;;;;21.50;11.10;;;11.50;84.90;;;;;;6214919;23;20226;-79
2022/11/27 08:03:53;;;;;;;18.07;10.00;;;11.60;85.00;;;;;;6214795;23;20162;-77
2022/11/27 08:06:23;;;;;;;18.37;10.57;;;11.60;84.10;;;;;;6213805;23;20191;-79
2022/11/27 08:08:53;;;;;;;16.77;10.03;;;11.70;84.40;;;;;;6214117;23;20159;-79
2022/11/27 08:11:23;;;;;;;17.03;9.80;;;11.70;84.20;;;;;;6214512;23;20229;-79
2022/11/27 08:13:56;;;;;;;19.60;10.77;;;11.80;83.90;;;;;;6214159;23;20589;-79
2022/11/27 08:16:26;;;;;;;21.03;10.60;;;11.90;83.20;;;;;;6210458;23;20159;-80
2022/11/27 08:18:55;;;;;;;19.30;11.37;;;11.90;82.90;;;;;;6212305;23;20215;-79
2022/11/27 08:21:23;;;;;;;17.43;10.70;;;11.90;82.60;;;;;;6213616;23;20182;-81
2022/11/27 08:23:52;;;;;;;19.57;10.17;;;11.90;82.20;;;;;;6214541;23;20171;-78
2022/11/27 08:26:20;;;;;;;18.03;10.43;;;12.00;82.20;;;;;;6214565;23;20202;-78
2022/11/27 08:28:51;;;;;;;17.40;11.37;;;12.00;82.20;;;;;;6214824;23;20175;-78
2022/11/27 08:31:20;;;;;;;24.23;11.63;;;12.10;82.60;;;;;;6214961;23;20160;-78
2022/11/27 08:33:50;;;;;;;19.20;10.73;;;12.10;81.70;;;;;;6213550;23;20266;-78
2022/11/27 08:36:18;;;;;;;24.63;13.32;;;12.10;81.50;;;;;;6213554;23;20388;-78
2022/11/27 08:38:47;;;;;;;20.57;11.87;;;12.20;81.40;;;;;;6213607;23;20175;-79
2022/11/27 08:41:15;;;;;;;19.17;11.27;;;12.20;80.20;;;;;;6213182;23;20229;-79
2022/11/27 08:43:43;;;;;;;19.27;11.27;;;12.20;80.50;;;;;;6213794;23;20175;-79
2022/11/27 08:46:12;;;;;;;18.57;9.90;;;12.20;80.40;;;;;;6213625;23;20244;-78
2022/11/27 08:48:40;;;;;;;20.77;10.75;;;12.20;80.20;;;;;;6211923;23;20753;-81
2022/11/27 08:51:12;;;;;;;19.23;9.50;;;12.30;80.00;;;;;;6213983;23;20203;-77
2022/11/27 08:53:40;;;;;;;16.70;8.57;;;12.30;79.10;;;;;;6214884;23;20160;-78
2022/11/27 08:56:12;;;;;;;17.57;7.87;;;12.30;78.20;;;;;;6214871;23;20229;-77
2022/11/27 08:58:40;;;;;;;15.13;8.43;;;12.30;77.40;;;;;;6213243;23;20209;-77
2022/11/27 09:01:10;;;;;;;15.30;8.70;;;12.30;77.60;;;;;;6214287;23;20179;-78
2022/11/27 09:03:39;;;;;;;16.30;6.87;;;12.30;78.00;;;;;;6213681;23;20169;-78
2022/11/27 09:06:11;;;;;;;15.60;8.20;;;12.40;77.30;;;;;;6214392;23;20257;-78
2022/11/27 09:08:41;;;;;;;15.40;7.60;;;12.40;77.30;;;;;;6213484;23;20159;-80
2022/11/27 09:11:10;;;;;;;10.17;6.23;;;12.40;77.00;;;;;;6213757;23;20175;-78
2022/11/27 09:13:39;;;;;;;13.40;6.67;;;12.40;76.50;;;;;;6214310;23;20179;-79
2022/11/27 09:16:10;;;;;;;13.90;7.97;;;12.40;76.60;;;;;;6211721;23;20475;-78
2022/11/27 09:18:39;;;;;;;13.57;7.20;;;12.40;76.90;;;;;;6214074;23;20167;-76
2022/11/27 09:21:10;;;;;;;11.63;7.13;;;12.40;77.00;;;;;;6214620;23;20178;-77
2022/11/27 09:23:39;;;;;;;11.97;7.20;;;12.50;76.70;;;;;;6213815;23;20170;-77
2022/11/27 09:26:10;;;;;;;15.97;7.17;;;12.50;76.20;;;;;;6213520;23;20499;-77
2022/11/27 09:28:39;;;;;;;14.00;7.10;;;12.50;76.40;;;;;;6214724;23;20160;-75
2022/11/27 09:31:11;;;;;;;11.03;6.57;;;12.60;76.30;;;;;;6213299;23;20524;-76
2022/11/27 09:33:40;;;;;;;12.23;7.00;;;12.60;75.80;;;;;;6214314;23;20202;-77
2022/11/27 09:36:12;;;;;;;13.30;6.40;;;12.60;75.30;;;;;;6216197;23;20186;-76
2022/11/27 09:38:41;;;;;;;12.43;6.37;;;12.70;75.80;;;;;;6214101;23;20210;-74
2022/11/27 09:41:32;;;;;;;13.57;6.87;;;12.70;74.90;;;;;;6216015;23;20233;-74
2022/11/27 09:44:05;;;;;;;11.70;6.77;;;12.80;75.60;;;;;;6213861;23;20178;-75
2022/11/27 09:46:38;;;;;;;11.50;6.10;;;12.90;75.10;;;;;;6215328;23;20179;-76
2022/11/27 09:49:09;;;;;;;15.50;7.47;;;12.90;75.40;;;;;;6214646;23;20159;-76
2022/11/27 09:51:44;;;;;;;12.70;6.93;;;12.90;75.50;;;;;;6215914;23;20198;-75
2022/11/27 09:54:19;;;;;;;14.43;7.95;;;13.00;74.90;;;;;;6214297;23;20414;-74
2022/11/27 09:56:51;;;;;;;11.60;6.10;;;13.00;74.40;;;;;;6215048;23;20511;-76
2022/11/27 09:59:23;;;;;;;13.23;7.20;;;13.00;72.70;;;;;;6215890;23;20167;-76
2022/11/27 10:01:52;;;;;;;10.57;6.50;;;13.00;73.10;;;;;;6215376;23;20160;-76
2022/11/27 10:04:21;;;;;;;16.05;7.95;;;13.00;73.20;;;;;;6214918;23;20388;-76
2022/11/27 10:07:12;;;;;;;12.90;6.87;;;13.10;72.50;;;;;;6212982;23;20627;-77
2022/11/27 10:09:57;;;;;;;12.67;6.70;;;13.10;72.40;;;;;;6215466;23;20210;-76
2022/11/27 10:12:32;;;;;;;12.53;6.30;;;13.10;71.30;;;;;;6214839;23;20191;-78
2022/11/27 10:15:07;;;;;;;12.23;6.43;;;13.10;72.40;;;;;;6213623;23;20466;-76
2022/11/27 10:17:40;;;;;;;13.40;7.37;;;13.20;72.80;;;;;;6213388;23;20481;-77
2022/11/27 10:20:18;;;;;;;15.00;7.03;;;13.20;73.10;;;;;;6214682;23;20167;-77
2022/11/27 10:22:54;;;;;;;12.10;6.90;;;13.30;73.40;;;;;;6214202;23;20166;-77
2022/11/27 10:25:29;;;;;;;14.37;7.20;;;13.30;73.50;;;;;;6216230;23;20213;-77
2022/11/27 10:28:13;;;;;;;15.53;8.10;;;13.40;73.60;;;;;;6214369;23;20632;-77
2022/11/27 10:30:50;;;;;;;15.47;8.03;;;13.40;73.20;;;;;;6213730;23;20160;-76
2022/11/27 10:33:23;;;;;;;12.50;7.00;;;13.40;73.40;;;;;;6213157;23;20237;-78
2022/11/27 10:35:52;;;;;;;16.80;8.27;;;13.50;73.80;;;;;;6215842;23;20205;-78
2022/11/27 10:38:25;;;;;;;16.70;7.83;;;13.50;73.80;;;;;;6215835;23;20206;-77
2022/11/27 10:41:04;;;;;;;13.20;6.97;;;13.60;73.70;;;;;;6213649;23;20589;-79
2022/11/27 10:43:34;;;;;;;15.13;8.13;;;13.60;73.30;;;;;;6215906;23;20206;-78
2022/11/27 10:46:09;;;;;;;16.07;8.00;;;13.70;73.80;;;;;;6214412;23;20620;-77
2022/11/27 10:48:37;;;;;;;12.30;7.07;;;13.70;73.60;;;;;;6215715;23;20234;-78
2022/11/27 10:51:14;;;;;;;12.93;7.80;;;13.70;73.50;;;;;;6213999;23;20529;-78
2022/11/27 10:53:46;;;;;;;14.57;7.97;;;13.70;73.60;;;;;;6213735;23;20166;-77
2022/11/27 10:56:35;;;;;;;12.90;7.20;;;13.70;72.30;;;;;;6216418;23;20167;-77
2022/11/27 10:59:06;;;;;;;14.53;7.10;;;13.80;72.50;;;;;;6215506;23;20175;-79
2022/11/27 11:01:43;;;;;;;10.93;6.07;;;13.80;72.50;;;;;;6213634;23;20667;-77
2022/11/27 11:04:14;;;;;;;12.47;6.53;;;13.90;72.20;;;;;;6216333;23;20163;-77
2022/11/27 11:07:02;;;;;;;13.27;6.33;;;13.90;71.20;;;;;;6214646;23;20258;-79
2022/11/27 11:09:34;;;;;;;13.27;6.77;;;13.90;71.00;;;;;;6215497;23;20179;-78
2022/11/27 11:12:09;;;;;;;12.23;6.13;;;14.00;71.80;;;;;;6214080;23;20163;-78
2022/11/27 11:14:37;;;;;;;15.00;7.53;;;14.00;70.20;;;;;;6214190;23;20391;-77
2022/11/27 11:17:15;;;;;;;12.60;6.73;;;13.90;69.50;;;;;;6212633;23;20248;-78
2022/11/27 11:19:44;;;;;;;13.77;6.67;;;14.00;68.80;;;;;;6212901;23;20163;-78
2022/11/27 11:22:15;;;;;;;15.97;6.83;;;13.90;68.50;;;;;;6214377;23;20171;-78
2022/11/27 11:24:48;;;;;;;13.37;6.27;;;14.00;69.20;;;;;;6212929;23;20182;-78
2022/11/27 11:27:20;;;;;;;11.60;5.73;;;14.00;69.40;;;;;;6215618;23;20250;-78
2022/11/27 11:29:51;;;;;;;11.90;6.00;;;14.00;69.40;;;;;;6215348;23;20210;-79
2022/11/27 11:32:23;;;;;;;12.03;5.50;;;14.10;69.50;;;;;;6215412;23;20210;-78
2022/11/27 11:34:56;;;;;;;10.37;5.40;;;14.20;69.30;;;;;;6215705;23;20159;-76
2022/11/27 11:37:30;;;;;;;11.97;5.37;;;14.20;69.10;;;;;;6215781;23;20155;-77
2022/11/27 11:40:02;;;;;;;11.40;4.73;;;14.30;68.80;;;;;;6215211;23;20210;-77
2022/11/27 11:42:33;;;;;;;13.80;5.33;;;14.30;68.50;;;;;;6215742;23;20182;-78
2022/11/27 11:45:05;;;;;;;11.30;5.57;;;14.30;68.00;;;;;;6214972;23;20160;-77
2022/11/27 11:47:35;;;;;;;12.63;5.60;;;14.30;67.90;;;;;;6215980;23;20175;-77
2022/11/27 11:50:04;;;;;;;8.67;4.90;;;14.30;67.70;;;;;;6215464;23;20235;-77
2022/11/27 11:52:42;;;;;;;11.87;5.47;;;14.30;67.80;;;;;;6214594;23;20302;-78
2022/11/27 11:55:18;;;;;;;10.23;5.20;;;14.30;68.60;;;;;;6214467;23;20167;-78
2022/11/27 11:58:21;;;;;;;10.43;5.77;;;14.30;67.90;;;;;;6215453;23;20162;-77
2022/11/27 12:00:54;;;;;;;9.27;4.83;;;14.30;67.50;;;;;;6215373;23;20159;-78
2022/11/27 12:03:59;;;;;;;10.23;5.73;;;14.30;67.60;;;;;;6214097;23;20213;-78
2022/11/27 12:06:42;;;;;;;14.13;5.70;;;14.30;67.50;;;;;;6213427;23;20163;-78
2022/11/27 12:09:20;;;;;;;11.23;5.03;;;14.30;67.50;;;;;;6215399;23;20180;-78
2022/11/27 12:11:58;;;;;;;9.43;4.67;;;14.30;67.30;;;;;;6215015;23;20163;-78
2022/11/27 12:14:38;;;;;;;10.43;4.83;;;14.30;67.00;;;;;;6214093;23;20659;-78
2022/11/27 12:17:21;;;;;;;7.60;4.13;;;14.20;66.60;;;;;;6212609;23;20155;-77
2022/11/27 12:20:05;;;;;;;8.40;4.07;;;14.20;64.70;;;;;;6215265;23;20605;-77
2022/11/27 12:23:00;;;;;;;8.67;4.50;;;14.20;64.70;;;;;;6215179;23;20194;-77
2022/11/27 12:25:33;;;;;;;9.03;4.73;;;14.20;65.10;;;;;;6149213;23;20202;-77
2022/11/27 12:28:19;;;;;;;10.67;4.20;;;14.20;65.30;;;;;;6214935;23;20179;-78
2022/11/27 12:30:54;;;;;;;9.07;4.50;;;14.20;65.70;;;;;;6215033;23;20481;-77
2022/11/27 12:33:43;;;;;;;15.17;5.70;;;14.20;65.70;;;;;;6213002;23;20163;-78
2022/11/27 12:36:19;;;;;;;10.50;5.33;;;14.20;66.00;;;;;;6213902;23;20167;-77
2022/11/27 12:39:03;;;;;;;9.27;4.90;;;14.20;66.00;;;;;;6215586;23;20214;-77
2022/11/27 12:41:46;;;;;;;10.93;6.10;;;14.10;65.80;;;;;;6211834;23;20442;-78
2022/11/27 12:44:23;;;;;;;9.00;4.97;;;14.10;65.20;;;;;;6213257;23;20619;-79
2022/11/27 12:46:58;;;;;;;8.20;4.67;;;14.10;65.70;;;;;;6213781;23;20601;-79
2022/11/27 12:49:30;;;;;;;11.00;5.53;;;14.10;65.90;;;;;;6215272;23;20175;-79
2022/11/27 12:52:08;;;;;;;9.27;5.07;;;14.10;66.10;;;;;;6212868;23;20534;-79
2022/11/27 12:54:42;;;;;;;10.40;4.73;;;14.00;65.70;;;;;;6213759;23;20488;-79